sensor_id;sensor_type;location;lat;lon;timestamp;P1;durP1;ratioP1;P2;durP2;ratioP2
42866;SDS011;39461;40.948;73.006;2023-02-11T00:00:58;19.05;;;11.15;;
42866;SDS011;39461;40.948;73.006;2023-02-11T00:03:31;15.93;;;10.02;;
42866;SDS011;39461;40.948;73.006;2023-02-11T00:06:05;24.75;;;14.25;;
42866;SDS011;39461;40.948;73.006;2023-02-11T00:08:42;25.58;;;14.70;;
42866;SDS011;39461;40.948;73.006;2023-02-11T00:11:15;26.83;;;14.82;;
42866;SDS011;39461;40.948;73.006;2023-02-11T00:13:49;28.05;;;14.73;;
42866;SDS011;39461;40.948;73.006;2023-02-11T00:16:23;30.38;;;15.45;;
42866;SDS011;39461;40.948;73.006;2023-02-11T00:19:00;28.33;;;15.85;;
42866;SDS011;39461;40.948;73.006;2023-02-11T00:21:44;25.38;;;15.35;;
42866;SDS011;39461;40.948;73.006;2023-02-11T00:24:19;25.80;;;14.93;;
42866;SDS011;39461;40.948;73.006;2023-02-11T00:26:54;33.60;;;17.45;;
42866;SDS011;39461;40.948;73.006;2023-02-11T00:29:30;31.90;;;18.48;;
42866;SDS011;39461;40.948;73.006;2023-02-11T00:32:05;34.03;;;18.85;;
42866;SDS011;39461;40.948;73.006;2023-02-11T00:34:41;28.30;;;15.80;;
42866;SDS011;39461;40.948;73.006;2023-02-11T00:37:16;24.05;;;14.32;;
42866;SDS011;39461;40.948;73.006;2023-02-11T00:39:51;24.08;;;14.10;;
42866;SDS011;39461;40.948;73.006;2023-02-11T00:42:26;25.33;;;14.32;;
42866;SDS011;39461;40.948;73.006;2023-02-11T00:45:02;26.10;;;13.93;;
42866;SDS011;39461;40.948;73.006;2023-02-11T00:47:37;25.85;;;14.57;;
42866;SDS011;39461;40.948;73.006;2023-02-11T00:50:11;20.73;;;11.27;;
42866;SDS011;39461;40.948;73.006;2023-02-11T00:52:44;19.23;;;10.95;;
42866;SDS011;39461;40.948;73.006;2023-02-11T00:55:17;17.90;;;11.05;;
42866;SDS011;39461;40.948;73.006;2023-02-11T00:57:50;22.23;;;12.63;;
42866;SDS011;39461;40.948;73.006;2023-02-11T01:00:23;22.23;;;13.40;;
42866;SDS011;39461;40.948;73.006;2023-02-11T01:02:56;23.08;;;13.32;;
42866;SDS011;39461;40.948;73.006;2023-02-11T01:05:31;28.58;;;16.58;;
42866;SDS011;39461;40.948;73.006;2023-02-11T01:08:04;30.17;;;17.95;;
42866;SDS011;39461;40.948;73.006;2023-02-11T01:10:38;28.65;;;17.83;;
42866;SDS011;39461;40.948;73.006;2023-02-11T01:13:11;37.42;;;21.85;;
42866;SDS011;39461;40.948;73.006;2023-02-11T01:15:50;34.58;;;20.20;;
42866;SDS011;39461;40.948;73.006;2023-02-11T01:18:23;32.90;;;19.13;;
42866;SDS011;39461;40.948;73.006;2023-02-11T01:20:56;34.90;;;19.90;;
42866;SDS011;39461;40.948;73.006;2023-02-11T01:23:29;43.72;;;24.30;;
42866;SDS011;39461;40.948;73.006;2023-02-11T01:25:56;39.88;;;22.08;;
42866;SDS011;39461;40.948;73.006;2023-02-11T01:28:26;43.88;;;22.75;;
42866;SDS011;39461;40.948;73.006;2023-02-11T01:31:00;50.88;;;25.20;;
42866;SDS011;39461;40.948;73.006;2023-02-11T01:33:34;50.03;;;28.02;;
42866;SDS011;39461;40.948;73.006;2023-02-11T01:36:08;43.97;;;24.00;;
42866;SDS011;39461;40.948;73.006;2023-02-11T01:38:43;41.22;;;24.38;;
42866;SDS011;39461;40.948;73.006;2023-02-11T01:41:16;45.60;;;25.05;;
42866;SDS011;39461;40.948;73.006;2023-02-11T01:43:53;50.25;;;27.75;;
42866;SDS011;39461;40.948;73.006;2023-02-11T01:49:07;44.60;;;25.77;;
42866;SDS011;39461;40.948;73.006;2023-02-11T01:51:48;25.23;;;15.90;;
42866;SDS011;39461;40.948;73.006;2023-02-11T01:57:42;32.58;;;20.42;;
42866;SDS011;39461;40.948;73.006;2023-02-11T02:00:21;29.60;;;18.42;;
42866;SDS011;39461;40.948;73.006;2023-02-11T02:02:59;24.08;;;16.00;;
42866;SDS011;39461;40.948;73.006;2023-02-11T02:10:51;44.67;;;25.45;;
42866;SDS011;39461;40.948;73.006;2023-02-11T02:13:27;46.90;;;26.02;;
42866;SDS011;39461;40.948;73.006;2023-02-11T02:16:03;50.00;;;28.05;;
42866;SDS011;39461;40.948;73.006;2023-02-11T02:30:05;38.40;;;23.02;;
42866;SDS011;39461;40.948;73.006;2023-02-11T02:38:11;40.75;;;26.10;;
42866;SDS011;39461;40.948;73.006;2023-02-11T02:40:47;34.70;;;20.30;;
42866;SDS011;39461;40.948;73.006;2023-02-11T02:43:25;34.97;;;21.00;;
42866;SDS011;39461;40.948;73.006;2023-02-11T02:48:45;35.28;;;19.15;;
42866;SDS011;39461;40.948;73.006;2023-02-11T02:57:27;49.33;;;29.70;;
42866;SDS011;39461;40.948;73.006;2023-02-11T03:03:14;53.50;;;32.65;;
42866;SDS011;39461;40.948;73.006;2023-02-11T03:08:58;70.70;;;40.30;;
42866;SDS011;39461;40.948;73.006;2023-02-11T03:11:34;83.78;;;45.13;;
42866;SDS011;39461;40.948;73.006;2023-02-11T03:14:11;93.57;;;51.13;;
42866;SDS011;39461;40.948;73.006;2023-02-11T03:16:47;79.65;;;46.45;;
42866;SDS011;39461;40.948;73.006;2023-02-11T03:19:42;77.22;;;44.50;;
42866;SDS011;39461;40.948;73.006;2023-02-11T03:22:18;77.78;;;41.95;;
42866;SDS011;39461;40.948;73.006;2023-02-11T03:24:54;81.90;;;43.33;;
42866;SDS011;39461;40.948;73.006;2023-02-11T03:27:28;80.30;;;44.65;;
42866;SDS011;39461;40.948;73.006;2023-02-11T03:30:04;84.28;;;44.10;;
42866;SDS011;39461;40.948;73.006;2023-02-11T03:32:52;79.55;;;43.42;;
42866;SDS011;39461;40.948;73.006;2023-02-11T03:35:35;74.35;;;40.85;;
42866;SDS011;39461;40.948;73.006;2023-02-11T03:38:35;65.95;;;37.78;;
42866;SDS011;39461;40.948;73.006;2023-02-11T03:41:08;77.50;;;44.45;;
42866;SDS011;39461;40.948;73.006;2023-02-11T03:46:43;84.43;;;47.03;;
42866;SDS011;39461;40.948;73.006;2023-02-11T03:49:19;92.72;;;50.83;;
42866;SDS011;39461;40.948;73.006;2023-02-11T03:51:54;94.95;;;52.13;;
42866;SDS011;39461;40.948;73.006;2023-02-11T03:54:28;96.55;;;52.67;;
42866;SDS011;39461;40.948;73.006;2023-02-11T03:57:02;95.63;;;49.65;;
42866;SDS011;39461;40.948;73.006;2023-02-11T03:59:56;71.40;;;38.20;;
42866;SDS011;39461;40.948;73.006;2023-02-11T04:02:36;79.07;;;44.40;;
42866;SDS011;39461;40.948;73.006;2023-02-11T04:05:10;72.43;;;42.70;;
42866;SDS011;39461;40.948;73.006;2023-02-11T04:07:45;76.25;;;42.97;;
42866;SDS011;39461;40.948;73.006;2023-02-11T04:10:18;83.13;;;47.50;;
42866;SDS011;39461;40.948;73.006;2023-02-11T04:12:51;86.18;;;48.85;;
42866;SDS011;39461;40.948;73.006;2023-02-11T04:15:24;85.82;;;49.50;;
42866;SDS011;39461;40.948;73.006;2023-02-11T04:17:57;95.13;;;53.45;;
42866;SDS011;39461;40.948;73.006;2023-02-11T04:20:31;95.40;;;52.90;;
42866;SDS011;39461;40.948;73.006;2023-02-11T04:23:04;99.25;;;54.03;;
42866;SDS011;39461;40.948;73.006;2023-02-11T04:25:37;83.88;;;49.13;;
42866;SDS011;39461;40.948;73.006;2023-02-11T04:28:10;78.93;;;44.88;;
42866;SDS011;39461;40.948;73.006;2023-02-11T04:30:43;55.72;;;31.67;;
42866;SDS011;39461;40.948;73.006;2023-02-11T04:33:16;70.50;;;36.83;;
42866;SDS011;39461;40.948;73.006;2023-02-11T04:35:54;65.57;;;33.88;;
42866;SDS011;39461;40.948;73.006;2023-02-11T04:38:33;74.18;;;41.33;;
42866;SDS011;39461;40.948;73.006;2023-02-11T04:44:04;76.22;;;44.75;;
42866;SDS011;39461;40.948;73.006;2023-02-11T04:46:38;73.97;;;43.10;;
42866;SDS011;39461;40.948;73.006;2023-02-11T04:49:12;88.80;;;50.90;;
42866;SDS011;39461;40.948;73.006;2023-02-11T04:51:51;96.80;;;52.67;;
42866;SDS011;39461;40.948;73.006;2023-02-11T04:54:24;95.88;;;53.95;;
42866;SDS011;39461;40.948;73.006;2023-02-11T04:56:58;90.90;;;54.50;;
42866;SDS011;39461;40.948;73.006;2023-02-11T04:59:37;90.68;;;54.80;;
42866;SDS011;39461;40.948;73.006;2023-02-11T05:02:11;75.45;;;45.85;;
42866;SDS011;39461;40.948;73.006;2023-02-11T05:04:45;58.83;;;34.78;;
42866;SDS011;39461;40.948;73.006;2023-02-11T05:07:18;69.55;;;42.90;;
42866;SDS011;39461;40.948;73.006;2023-02-11T05:09:53;64.55;;;37.33;;
42866;SDS011;39461;40.948;73.006;2023-02-11T05:12:26;50.33;;;31.08;;
42866;SDS011;39461;40.948;73.006;2023-02-11T05:14:59;86.30;;;49.78;;
42866;SDS011;39461;40.948;73.006;2023-02-11T05:17:37;88.70;;;51.65;;
42866;SDS011;39461;40.948;73.006;2023-02-11T05:20:09;90.35;;;52.35;;
42866;SDS011;39461;40.948;73.006;2023-02-11T05:22:45;84.90;;;51.15;;
42866;SDS011;39461;40.948;73.006;2023-02-11T05:25:17;93.47;;;53.17;;
42866;SDS011;39461;40.948;73.006;2023-02-11T05:27:45;93.43;;;54.17;;
42866;SDS011;39461;40.948;73.006;2023-02-11T05:30:18;77.47;;;44.67;;
42866;SDS011;39461;40.948;73.006;2023-02-11T05:32:51;75.03;;;44.83;;
42866;SDS011;39461;40.948;73.006;2023-02-11T05:35:25;66.97;;;40.72;;
42866;SDS011;39461;40.948;73.006;2023-02-11T05:37:58;71.70;;;43.05;;
42866;SDS011;39461;40.948;73.006;2023-02-11T05:40:31;81.63;;;49.28;;
42866;SDS011;39461;40.948;73.006;2023-02-11T05:43:04;86.40;;;51.17;;
42866;SDS011;39461;40.948;73.006;2023-02-11T05:45:38;90.20;;;52.75;;
42866;SDS011;39461;40.948;73.006;2023-02-11T05:48:11;93.35;;;54.90;;
42866;SDS011;39461;40.948;73.006;2023-02-11T05:50:44;87.72;;;53.45;;
42866;SDS011;39461;40.948;73.006;2023-02-11T05:53:17;87.22;;;51.08;;
42866;SDS011;39461;40.948;73.006;2023-02-11T05:55:50;81.28;;;49.28;;
42866;SDS011;39461;40.948;73.006;2023-02-11T05:58:23;88.97;;;52.83;;
42866;SDS011;39461;40.948;73.006;2023-02-11T06:00:56;87.40;;;52.33;;
42866;SDS011;39461;40.948;73.006;2023-02-11T06:03:29;95.28;;;56.63;;
42866;SDS011;39461;40.948;73.006;2023-02-11T06:06:03;90.60;;;56.15;;
42866;SDS011;39461;40.948;73.006;2023-02-11T06:08:36;91.82;;;56.60;;
42866;SDS011;39461;40.948;73.006;2023-02-11T06:11:09;99.32;;;57.92;;
42866;SDS011;39461;40.948;73.006;2023-02-11T06:13:43;95.22;;;60.40;;
42866;SDS011;39461;40.948;73.006;2023-02-11T06:16:17;111.45;;;66.18;;
42866;SDS011;39461;40.948;73.006;2023-02-11T06:18:50;111.72;;;68.18;;
42866;SDS011;39461;40.948;73.006;2023-02-11T06:21:23;127.88;;;78.63;;
42866;SDS011;39461;40.948;73.006;2023-02-11T06:23:56;118.88;;;69.38;;
42866;SDS011;39461;40.948;73.006;2023-02-11T06:26:29;124.68;;;77.13;;
42866;SDS011;39461;40.948;73.006;2023-02-11T06:29:02;127.60;;;72.78;;
42866;SDS011;39461;40.948;73.006;2023-02-11T06:31:36;136.05;;;82.68;;
42866;SDS011;39461;40.948;73.006;2023-02-11T06:34:09;137.73;;;79.30;;
42866;SDS011;39461;40.948;73.006;2023-02-11T06:36:49;124.10;;;74.95;;
42866;SDS011;39461;40.948;73.006;2023-02-11T06:39:22;128.15;;;75.25;;
42866;SDS011;39461;40.948;73.006;2023-02-11T06:41:55;125.18;;;76.72;;
42866;SDS011;39461;40.948;73.006;2023-02-11T06:44:28;116.75;;;72.65;;
42866;SDS011;39461;40.948;73.006;2023-02-11T06:47:01;123.63;;;70.28;;
42866;SDS011;39461;40.948;73.006;2023-02-11T06:49:34;131.70;;;73.90;;
42866;SDS011;39461;40.948;73.006;2023-02-11T06:52:08;135.75;;;76.80;;
42866;SDS011;39461;40.948;73.006;2023-02-11T06:54:41;144.80;;;85.22;;
42866;SDS011;39461;40.948;73.006;2023-02-11T06:57:14;146.52;;;88.15;;
42866;SDS011;39461;40.948;73.006;2023-02-11T06:59:47;145.23;;;88.50;;
42866;SDS011;39461;40.948;73.006;2023-02-11T07:02:20;145.50;;;85.93;;
42866;SDS011;39461;40.948;73.006;2023-02-11T07:04:53;154.20;;;93.85;;
42866;SDS011;39461;40.948;73.006;2023-02-11T07:07:26;131.35;;;79.88;;
42866;SDS011;39461;40.948;73.006;2023-02-11T07:09:59;141.18;;;84.85;;
42866;SDS011;39461;40.948;73.006;2023-02-11T07:12:34;142.82;;;85.85;;
42866;SDS011;39461;40.948;73.006;2023-02-11T07:15:07;137.60;;;82.32;;
42866;SDS011;39461;40.948;73.006;2023-02-11T07:17:41;65.70;;;40.30;;
42866;SDS011;39461;40.948;73.006;2023-02-11T07:20:16;59.35;;;35.72;;
42866;SDS011;39461;40.948;73.006;2023-02-11T07:22:50;52.85;;;32.30;;
42866;SDS011;39461;40.948;73.006;2023-02-11T07:25:21;55.28;;;33.97;;
42866;SDS011;39461;40.948;73.006;2023-02-11T07:27:50;56.22;;;34.83;;
42866;SDS011;39461;40.948;73.006;2023-02-11T07:30:23;53.45;;;32.78;;
42866;SDS011;39461;40.948;73.006;2023-02-11T07:32:57;85.47;;;54.75;;
42866;SDS011;39461;40.948;73.006;2023-02-11T07:35:30;113.10;;;68.97;;
42866;SDS011;39461;40.948;73.006;2023-02-11T07:38:03;123.90;;;71.40;;
42866;SDS011;39461;40.948;73.006;2023-02-11T07:40:36;119.00;;;72.57;;
42866;SDS011;39461;40.948;73.006;2023-02-11T07:43:09;117.75;;;71.45;;
42866;SDS011;39461;40.948;73.006;2023-02-11T07:45:42;120.45;;;73.50;;
42866;SDS011;39461;40.948;73.006;2023-02-11T07:48:15;121.25;;;72.28;;
42866;SDS011;39461;40.948;73.006;2023-02-11T07:50:51;115.70;;;68.07;;
42866;SDS011;39461;40.948;73.006;2023-02-11T07:53:25;107.85;;;64.45;;
42866;SDS011;39461;40.948;73.006;2023-02-11T07:55:58;111.20;;;68.22;;
42866;SDS011;39461;40.948;73.006;2023-02-11T07:58:32;124.85;;;76.80;;
42866;SDS011;39461;40.948;73.006;2023-02-11T08:01:06;108.72;;;67.95;;
42866;SDS011;39461;40.948;73.006;2023-02-11T08:03:43;130.02;;;79.38;;
42866;SDS011;39461;40.948;73.006;2023-02-11T08:06:19;117.35;;;72.57;;
42866;SDS011;39461;40.948;73.006;2023-02-11T08:08:55;110.68;;;67.95;;
42866;SDS011;39461;40.948;73.006;2023-02-11T08:11:30;122.20;;;72.72;;
42866;SDS011;39461;40.948;73.006;2023-02-11T08:17:05;105.47;;;64.30;;
42866;SDS011;39461;40.948;73.006;2023-02-11T08:19:40;113.90;;;70.00;;
42866;SDS011;39461;40.948;73.006;2023-02-11T08:22:15;151.20;;;89.30;;
42866;SDS011;39461;40.948;73.006;2023-02-11T08:24:50;154.75;;;97.25;;
42866;SDS011;39461;40.948;73.006;2023-02-11T08:27:27;134.85;;;83.28;;
42866;SDS011;39461;40.948;73.006;2023-02-11T08:30:07;143.40;;;88.75;;
42866;SDS011;39461;40.948;73.006;2023-02-11T08:32:44;150.43;;;91.80;;
42866;SDS011;39461;40.948;73.006;2023-02-11T08:35:19;149.60;;;94.15;;
42866;SDS011;39461;40.948;73.006;2023-02-11T08:37:54;144.20;;;87.05;;
42866;SDS011;39461;40.948;73.006;2023-02-11T08:40:30;149.63;;;93.10;;
42866;SDS011;39461;40.948;73.006;2023-02-11T08:43:05;136.13;;;83.40;;
42866;SDS011;39461;40.948;73.006;2023-02-11T08:45:40;144.23;;;88.43;;
42866;SDS011;39461;40.948;73.006;2023-02-11T08:48:19;142.88;;;85.28;;
42866;SDS011;39461;40.948;73.006;2023-02-11T08:50:58;155.05;;;93.70;;
42866;SDS011;39461;40.948;73.006;2023-02-11T08:53:31;129.32;;;81.18;;
42866;SDS011;39461;40.948;73.006;2023-02-11T08:56:05;135.13;;;84.20;;
42866;SDS011;39461;40.948;73.006;2023-02-11T08:58:38;126.43;;;78.65;;
42866;SDS011;39461;40.948;73.006;2023-02-11T09:01:19;123.53;;;77.32;;
42866;SDS011;39461;40.948;73.006;2023-02-11T09:03:53;133.15;;;81.07;;
42866;SDS011;39461;40.948;73.006;2023-02-11T09:06:26;125.78;;;74.60;;
42866;SDS011;39461;40.948;73.006;2023-02-11T09:08:59;106.68;;;62.42;;
42866;SDS011;39461;40.948;73.006;2023-02-11T09:11:28;97.15;;;60.92;;
42866;SDS011;39461;40.948;73.006;2023-02-11T09:14:01;97.10;;;61.75;;
42866;SDS011;39461;40.948;73.006;2023-02-11T09:16:35;103.30;;;62.42;;
42866;SDS011;39461;40.948;73.006;2023-02-11T09:19:08;104.13;;;63.03;;
42866;SDS011;39461;40.948;73.006;2023-02-11T09:21:41;103.05;;;61.40;;
42866;SDS011;39461;40.948;73.006;2023-02-11T09:24:15;98.15;;;59.15;;
42866;SDS011;39461;40.948;73.006;2023-02-11T09:26:43;89.15;;;55.83;;
42866;SDS011;39461;40.948;73.006;2023-02-11T09:29:14;82.88;;;49.95;;
42866;SDS011;39461;40.948;73.006;2023-02-11T09:31:47;83.63;;;50.83;;
42866;SDS011;39461;40.948;73.006;2023-02-11T09:34:25;77.20;;;47.03;;
42866;SDS011;39461;40.948;73.006;2023-02-11T09:36:58;87.35;;;51.13;;
42866;SDS011;39461;40.948;73.006;2023-02-11T09:39:31;84.40;;;50.53;;
42866;SDS011;39461;40.948;73.006;2023-02-11T09:44:37;85.90;;;53.58;;
42866;SDS011;39461;40.948;73.006;2023-02-11T09:49:56;83.82;;;52.85;;
42866;SDS011;39461;40.948;73.006;2023-02-11T09:52:39;87.13;;;52.53;;
42866;SDS011;39461;40.948;73.006;2023-02-11T09:55:16;89.55;;;56.25;;
42866;SDS011;39461;40.948;73.006;2023-02-11T09:57:50;91.55;;;56.33;;
42866;SDS011;39461;40.948;73.006;2023-02-11T10:08:45;91.03;;;54.10;;
42866;SDS011;39461;40.948;73.006;2023-02-11T10:14:26;97.57;;;57.90;;
42866;SDS011;39461;40.948;73.006;2023-02-11T10:17:13;99.57;;;60.72;;
42866;SDS011;39461;40.948;73.006;2023-02-11T10:22:51;98.60;;;58.60;;
42866;SDS011;39461;40.948;73.006;2023-02-11T10:25:28;102.05;;;60.38;;
42866;SDS011;39461;40.948;73.006;2023-02-11T10:28:12;105.78;;;62.22;;
42866;SDS011;39461;40.948;73.006;2023-02-11T10:36:39;111.68;;;61.17;;
42866;SDS011;39461;40.948;73.006;2023-02-11T10:39:18;102.72;;;57.88;;
42866;SDS011;39461;40.948;73.006;2023-02-11T10:41:58;97.20;;;55.92;;
42866;SDS011;39461;40.948;73.006;2023-02-11T10:44:40;92.82;;;56.33;;
42866;SDS011;39461;40.948;73.006;2023-02-11T10:47:18;96.10;;;57.67;;
42866;SDS011;39461;40.948;73.006;2023-02-11T10:49:54;100.75;;;57.42;;
42866;SDS011;39461;40.948;73.006;2023-02-11T10:52:35;95.32;;;58.35;;
42866;SDS011;39461;40.948;73.006;2023-02-11T11:00:32;90.80;;;54.40;;
42866;SDS011;39461;40.948;73.006;2023-02-11T11:06:10;97.90;;;54.03;;
42866;SDS011;39461;40.948;73.006;2023-02-11T11:08:47;99.82;;;57.58;;
42866;SDS011;39461;40.948;73.006;2023-02-11T11:11:23;97.93;;;57.58;;
42866;SDS011;39461;40.948;73.006;2023-02-11T11:13:59;97.82;;;59.53;;
42866;SDS011;39461;40.948;73.006;2023-02-11T11:16:35;91.47;;;56.38;;
42866;SDS011;39461;40.948;73.006;2023-02-11T11:21:44;101.00;;;58.53;;
42866;SDS011;39461;40.948;73.006;2023-02-11T11:26:53;98.45;;;58.60;;
42866;SDS011;39461;40.948;73.006;2023-02-11T11:32:02;88.70;;;52.60;;
42866;SDS011;39461;40.948;73.006;2023-02-11T11:34:39;79.45;;;48.47;;
42866;SDS011;39461;40.948;73.006;2023-02-11T11:40:09;89.57;;;51.97;;
42866;SDS011;39461;40.948;73.006;2023-02-11T11:42:45;85.90;;;51.75;;
42866;SDS011;39461;40.948;73.006;2023-02-11T11:45:24;84.28;;;50.50;;
42866;SDS011;39461;40.948;73.006;2023-02-11T11:48:17;84.20;;;49.95;;
42866;SDS011;39461;40.948;73.006;2023-02-11T11:51:00;80.07;;;47.60;;
42866;SDS011;39461;40.948;73.006;2023-02-11T11:53:43;79.80;;;48.38;;
42866;SDS011;39461;40.948;73.006;2023-02-11T11:56:22;85.57;;;50.35;;
42866;SDS011;39461;40.948;73.006;2023-02-11T11:58:56;88.35;;;52.58;;
42866;SDS011;39461;40.948;73.006;2023-02-11T12:18:15;80.10;;;46.90;;
42866;SDS011;39461;40.948;73.006;2023-02-11T12:20:54;84.32;;;47.80;;
42866;SDS011;39461;40.948;73.006;2023-02-11T12:26:35;90.78;;;52.13;;
42866;SDS011;39461;40.948;73.006;2023-02-11T12:32:08;95.80;;;54.05;;
42866;SDS011;39461;40.948;73.006;2023-02-11T12:40:12;111.65;;;65.68;;
42866;SDS011;39461;40.948;73.006;2023-02-11T12:51:17;141.32;;;78.13;;
42866;SDS011;39461;40.948;73.006;2023-02-11T12:54:01;142.15;;;84.97;;
42866;SDS011;39461;40.948;73.006;2023-02-11T12:56:46;145.43;;;81.78;;
42866;SDS011;39461;40.948;73.006;2023-02-11T12:59:33;149.15;;;83.00;;
42866;SDS011;39461;40.948;73.006;2023-02-11T13:05:30;151.52;;;82.80;;
42866;SDS011;39461;40.948;73.006;2023-02-11T13:10:41;160.82;;;89.90;;
42866;SDS011;39461;40.948;73.006;2023-02-11T13:13:21;161.27;;;92.03;;
42866;SDS011;39461;40.948;73.006;2023-02-11T13:23:58;167.80;;;96.57;;
42866;SDS011;39461;40.948;73.006;2023-02-11T13:31:40;192.18;;;109.25;;
42866;SDS011;39461;40.948;73.006;2023-02-11T13:40:00;197.90;;;113.40;;
42866;SDS011;39461;40.948;73.006;2023-02-11T13:42:43;203.60;;;115.65;;
42866;SDS011;39461;40.948;73.006;2023-02-11T13:45:29;201.27;;;111.47;;
42866;SDS011;39461;40.948;73.006;2023-02-11T13:48:06;168.25;;;95.43;;
42866;SDS011;39461;40.948;73.006;2023-02-11T13:50:50;184.32;;;104.03;;
42866;SDS011;39461;40.948;73.006;2023-02-11T13:53:26;195.70;;;109.28;;
42866;SDS011;39461;40.948;73.006;2023-02-11T13:56:10;174.15;;;101.47;;
42866;SDS011;39461;40.948;73.006;2023-02-11T13:58:46;181.50;;;101.40;;
42866;SDS011;39461;40.948;73.006;2023-02-11T14:04:21;262.45;;;145.63;;
42866;SDS011;39461;40.948;73.006;2023-02-11T14:07:30;302.80;;;164.70;;
42866;SDS011;39461;40.948;73.006;2023-02-11T14:16:05;354.00;;;191.90;;
42866;SDS011;39461;40.948;73.006;2023-02-11T14:27:01;221.30;;;123.38;;
42866;SDS011;39461;40.948;73.006;2023-02-11T14:32:21;173.25;;;97.82;;
42866;SDS011;39461;40.948;73.006;2023-02-11T14:35:20;177.73;;;95.38;;
42866;SDS011;39461;40.948;73.006;2023-02-11T14:43:57;189.00;;;107.47;;
42866;SDS011;39461;40.948;73.006;2023-02-11T14:46:14;188.85;;;106.90;;
42866;SDS011;39461;40.948;73.006;2023-02-11T14:48:51;193.88;;;108.72;;
42866;SDS011;39461;40.948;73.006;2023-02-11T14:54:13;204.30;;;111.57;;
42866;SDS011;39461;40.948;73.006;2023-02-11T14:57:04;214.70;;;115.82;;
42866;SDS011;39461;40.948;73.006;2023-02-11T15:02:37;210.10;;;113.32;;
42866;SDS011;39461;40.948;73.006;2023-02-11T15:05:20;209.73;;;110.57;;
42866;SDS011;39461;40.948;73.006;2023-02-11T15:08:02;208.55;;;112.95;;
42866;SDS011;39461;40.948;73.006;2023-02-11T15:10:41;206.40;;;110.68;;
42866;SDS011;39461;40.948;73.006;2023-02-11T15:13:19;187.18;;;98.07;;
42866;SDS011;39461;40.948;73.006;2023-02-11T15:16:03;166.80;;;85.57;;
42866;SDS011;39461;40.948;73.006;2023-02-11T15:18:39;132.48;;;72.88;;
42866;SDS011;39461;40.948;73.006;2023-02-11T15:21:25;141.68;;;74.47;;
42866;SDS011;39461;40.948;73.006;2023-02-11T15:27:02;179.85;;;75.88;;
42866;SDS011;39461;40.948;73.006;2023-02-11T15:29:37;152.23;;;78.70;;
42866;SDS011;39461;40.948;73.006;2023-02-11T15:32:21;149.63;;;80.10;;
42866;SDS011;39461;40.948;73.006;2023-02-11T15:34:54;159.30;;;84.75;;
42866;SDS011;39461;40.948;73.006;2023-02-11T15:37:32;166.93;;;88.78;;
42866;SDS011;39461;40.948;73.006;2023-02-11T15:40:16;183.55;;;96.15;;
42866;SDS011;39461;40.948;73.006;2023-02-11T15:42:56;188.88;;;100.90;;
42866;SDS011;39461;40.948;73.006;2023-02-11T15:45:33;201.80;;;107.22;;
42866;SDS011;39461;40.948;73.006;2023-02-11T15:48:10;185.43;;;98.55;;
42866;SDS011;39461;40.948;73.006;2023-02-11T15:50:49;181.27;;;98.70;;
42866;SDS011;39461;40.948;73.006;2023-02-11T15:53:29;188.13;;;101.80;;
42866;SDS011;39461;40.948;73.006;2023-02-11T15:58:53;196.13;;;103.82;;
42866;SDS011;39461;40.948;73.006;2023-02-11T16:01:30;162.20;;;90.47;;
42866;SDS011;39461;40.948;73.006;2023-02-11T16:04:13;161.57;;;90.22;;
42866;SDS011;39461;40.948;73.006;2023-02-11T16:06:51;178.38;;;98.93;;
42866;SDS011;39461;40.948;73.006;2023-02-11T16:09:30;191.63;;;103.20;;
42866;SDS011;39461;40.948;73.006;2023-02-11T16:12:23;216.38;;;116.53;;
42866;SDS011;39461;40.948;73.006;2023-02-11T16:14:57;219.77;;;118.82;;
42866;SDS011;39461;40.948;73.006;2023-02-11T16:17:40;208.57;;;111.28;;
42866;SDS011;39461;40.948;73.006;2023-02-11T16:20:19;204.82;;;109.03;;
42866;SDS011;39461;40.948;73.006;2023-02-11T16:22:52;209.68;;;108.82;;
42866;SDS011;39461;40.948;73.006;2023-02-11T16:25:27;219.95;;;114.28;;
42866;SDS011;39461;40.948;73.006;2023-02-11T16:28:11;214.30;;;116.10;;
42866;SDS011;39461;40.948;73.006;2023-02-11T16:30:50;227.95;;;122.47;;
42866;SDS011;39461;40.948;73.006;2023-02-11T16:33:24;231.30;;;128.27;;
42866;SDS011;39461;40.948;73.006;2023-02-11T16:35:57;242.70;;;133.18;;
42866;SDS011;39461;40.948;73.006;2023-02-11T16:38:32;266.52;;;141.40;;
42866;SDS011;39461;40.948;73.006;2023-02-11T16:41:05;257.35;;;134.10;;
42866;SDS011;39461;40.948;73.006;2023-02-11T16:43:42;216.38;;;116.80;;
42866;SDS011;39461;40.948;73.006;2023-02-11T16:46:15;212.25;;;112.28;;
42866;SDS011;39461;40.948;73.006;2023-02-11T16:48:49;194.93;;;108.22;;
42866;SDS011;39461;40.948;73.006;2023-02-11T16:51:22;200.18;;;107.55;;
42866;SDS011;39461;40.948;73.006;2023-02-11T16:53:55;191.85;;;103.60;;
42866;SDS011;39461;40.948;73.006;2023-02-11T16:56:28;199.15;;;103.07;;
42866;SDS011;39461;40.948;73.006;2023-02-11T16:59:01;199.27;;;103.43;;
42866;SDS011;39461;40.948;73.006;2023-02-11T17:01:35;191.65;;;98.05;;
42866;SDS011;39461;40.948;73.006;2023-02-11T17:04:10;174.13;;;96.00;;
42866;SDS011;39461;40.948;73.006;2023-02-11T17:06:46;184.93;;;96.60;;
42866;SDS011;39461;40.948;73.006;2023-02-11T17:09:21;206.07;;;103.40;;
42866;SDS011;39461;40.948;73.006;2023-02-11T17:11:54;217.88;;;107.93;;
42866;SDS011;39461;40.948;73.006;2023-02-11T17:14:30;224.13;;;116.72;;
42866;SDS011;39461;40.948;73.006;2023-02-11T17:17:03;225.70;;;117.00;;
42866;SDS011;39461;40.948;73.006;2023-02-11T17:19:38;206.57;;;108.10;;
42866;SDS011;39461;40.948;73.006;2023-02-11T17:22:11;187.90;;;99.38;;
42866;SDS011;39461;40.948;73.006;2023-02-11T17:24:45;176.65;;;93.20;;
42866;SDS011;39461;40.948;73.006;2023-02-11T17:27:12;177.38;;;94.32;;
42866;SDS011;39461;40.948;73.006;2023-02-11T17:29:52;167.32;;;87.57;;
42866;SDS011;39461;40.948;73.006;2023-02-11T17:32:25;167.00;;;87.72;;
42866;SDS011;39461;40.948;73.006;2023-02-11T17:34:58;170.38;;;85.70;;
42866;SDS011;39461;40.948;73.006;2023-02-11T17:37:39;185.60;;;93.10;;
42866;SDS011;39461;40.948;73.006;2023-02-11T17:40:13;172.88;;;89.15;;
42866;SDS011;39461;40.948;73.006;2023-02-11T17:42:48;171.00;;;91.57;;
42866;SDS011;39461;40.948;73.006;2023-02-11T17:45:25;174.10;;;93.55;;
42866;SDS011;39461;40.948;73.006;2023-02-11T17:48:00;174.07;;;90.43;;
42866;SDS011;39461;40.948;73.006;2023-02-11T17:50:34;166.60;;;90.10;;
42866;SDS011;39461;40.948;73.006;2023-02-11T17:53:07;163.70;;;82.32;;
42866;SDS011;39461;40.948;73.006;2023-02-11T17:55:40;156.00;;;79.22;;
42866;SDS011;39461;40.948;73.006;2023-02-11T17:58:13;142.15;;;75.00;;
42866;SDS011;39461;40.948;73.006;2023-02-11T18:00:46;144.55;;;76.28;;
42866;SDS011;39461;40.948;73.006;2023-02-11T18:03:19;132.15;;;67.53;;
42866;SDS011;39461;40.948;73.006;2023-02-11T18:05:59;132.75;;;67.40;;